createdAt,value
2018-05-21T00:05:34.343Z,6.22
2018-05-21T00:11:29.365Z,6.72
2018-05-21T00:17:24.348Z,5.9
2018-05-21T00:23:19.314Z,5.62
2018-05-21T00:29:14.311Z,5.51
2018-05-21T00:35:09.404Z,4.36
2018-05-21T00:41:04.315Z,4.97
2018-05-21T00:46:59.375Z,4.65
2018-05-21T00:52:54.344Z,5.44
2018-05-21T00:58:49.383Z,5.75
2018-05-21T01:04:44.333Z,5.53
2018-05-21T01:10:39.346Z,5.7
2018-05-21T01:16:34.371Z,7.69
2018-05-21T01:22:29.347Z,5.13
2018-05-21T01:28:24.348Z,5.22
2018-05-21T01:34:19.362Z,6.65
2018-05-21T01:40:14.366Z,4.69
2018-05-21T01:46:09.404Z,5.67
2018-05-21T01:52:04.438Z,4.53
2018-05-21T01:57:59.400Z,5
2018-05-21T02:03:54.389Z,5.14
2018-05-21T02:09:49.370Z,6.76
2018-05-21T02:15:44.375Z,4.63
2018-05-21T02:21:39.375Z,5.15
2018-05-21T02:27:34.420Z,5.69
2018-05-21T02:33:29.383Z,5.54
2018-05-21T02:39:24.433Z,5.3
2018-05-21T02:45:19.422Z,5.12
2018-05-21T02:51:14.405Z,5.3
2018-05-21T02:57:09.430Z,5.3
2018-05-21T03:03:04.425Z,5.43
2018-05-21T03:08:59.413Z,5.64
2018-05-21T03:14:54.412Z,5.64
2018-05-21T03:20:49.473Z,5.43
2018-05-21T03:26:44.399Z,4.97
2018-05-21T03:32:39.443Z,5.59
2018-05-21T03:38:34.500Z,5.79
2018-05-21T03:44:29.477Z,5.16
2018-05-21T03:50:24.421Z,5.48
2018-05-21T03:56:19.448Z,5.59
2018-05-21T04:02:14.446Z,6
2018-05-21T04:08:09.437Z,5.54
2018-05-21T04:14:04.463Z,5.49
2018-05-21T04:19:59.480Z,5.45
2018-05-21T04:25:54.497Z,6.09
2018-05-21T04:31:49.468Z,5.6
2018-05-21T04:37:44.453Z,6.03
2018-05-21T04:43:39.463Z,6.88
2018-05-21T04:49:34.457Z,5.78
2018-05-21T04:55:29.504Z,6.02
2018-05-21T05:01:24.490Z,5.22
2018-05-21T05:07:19.481Z,6.56
2018-05-21T05:13:14.482Z,6.5
2018-05-21T05:19:09.495Z,6.89
2018-05-21T05:25:04.573Z,6.25
2018-05-21T05:30:59.518Z,6.37
2018-05-21T05:36:54.513Z,6.54
2018-05-21T05:42:49.503Z,4.17
2018-05-21T05:48:44.565Z,5.73
2018-05-21T05:54:39.514Z,5.38
2018-05-21T06:00:34.514Z,6.73
2018-05-21T06:06:29.538Z,6.17
2018-05-21T06:12:24.534Z,4.47
2018-05-21T06:18:19.544Z,6.73
2018-05-21T06:24:14.580Z,6.4
2018-05-21T06:30:09.508Z,6.75
2018-05-21T06:36:04.525Z,5.68
2018-05-21T06:41:59.534Z,6.49
2018-05-21T06:47:54.536Z,6.18
2018-05-21T06:53:49.549Z,6.83
2018-05-21T06:59:44.634Z,6.04
2018-05-21T07:05:39.582Z,6.78
2018-05-21T07:11:34.550Z,6.87
2018-05-21T07:17:29.563Z,6.02
2018-05-21T07:23:24.584Z,6.93
2018-05-21T07:29:19.545Z,7.13
2018-05-21T07:35:14.538Z,6.92
2018-05-21T07:41:09.666Z,6.83
2018-05-21T07:47:04.605Z,6.02
2018-05-21T07:52:59.563Z,7.11
2018-05-21T07:58:54.567Z,4.96
2018-05-21T08:04:49.587Z,6.48
2018-05-21T08:10:44.612Z,5.38
2018-05-21T08:16:39.571Z,5.56
2018-05-21T08:22:34.627Z,5.28
2018-05-21T08:28:29.630Z,6.98
2018-05-21T08:34:24.603Z,5.91
2018-05-21T08:40:19.626Z,6.39
2018-05-21T08:46:14.647Z,5.36
2018-05-21T08:52:09.645Z,6.58
2018-05-21T08:58:04.621Z,6.25
2018-05-21T09:03:59.682Z,6.15
2018-05-21T09:09:54.631Z,6.51
2018-05-21T09:15:49.607Z,5.65
2018-05-21T09:21:44.684Z,5.74
2018-05-21T09:27:39.684Z,4
2018-05-21T09:33:34.611Z,5.03
2018-05-21T09:39:29.626Z,4.77
2018-05-21T09:45:24.667Z,5.4
2018-05-21T09:51:19.650Z,5.72
2018-05-21T09:57:14.677Z,6.37
2018-05-21T10:03:09.654Z,5.8
2018-05-21T10:09:04.637Z,5.78
2018-05-21T10:14:59.651Z,5.98
2018-05-21T10:20:54.678Z,4.99
2018-05-21T10:26:49.670Z,5.71
2018-05-21T10:32:44.701Z,6.51
2018-05-21T10:38:39.645Z,5.77
2018-05-21T10:44:34.743Z,5.5
2018-05-21T10:50:29.692Z,5.94
2018-05-21T10:56:24.674Z,5.52
2018-05-21T11:02:19.691Z,5.9
2018-05-21T11:08:14.677Z,5.44
2018-05-21T11:14:09.688Z,6.26
2018-05-21T11:20:04.689Z,6
2018-05-21T11:25:59.670Z,6.45
2018-05-21T11:31:54.721Z,6.47
2018-05-21T11:37:49.714Z,5.62
2018-05-21T11:43:44.700Z,5.77
2018-05-21T11:49:39.729Z,6.55
2018-05-21T11:55:34.696Z,6.46
2018-05-21T12:01:29.739Z,6.15
2018-05-21T12:07:24.781Z,6.29
2018-05-21T12:13:19.735Z,6.65
2018-05-21T12:19:14.780Z,6.57
2018-05-21T12:25:09.718Z,5.82
2018-05-21T12:31:04.732Z,5.45
2018-05-21T12:36:59.750Z,4.83
2018-05-21T12:42:54.768Z,4.67
2018-05-21T12:48:49.755Z,3.83
2018-05-21T12:54:44.852Z,4.76
2018-05-21T13:00:39.759Z,5.13
2018-05-21T13:06:34.752Z,4.4
2018-05-21T13:12:29.750Z,4.96
2018-05-21T13:18:24.811Z,4.06
2018-05-21T13:24:19.792Z,4.5
2018-05-21T13:30:14.742Z,5.14
2018-05-21T13:36:09.825Z,5.43
2018-05-21T13:42:04.770Z,4.63
2018-05-21T13:47:59.805Z,4.61
2018-05-21T13:53:54.753Z,4.2
2018-05-21T13:59:49.828Z,4.52
2018-05-21T14:05:44.780Z,4.68
2018-05-21T14:11:39.796Z,4.93
2018-05-21T14:17:34.807Z,5.06
2018-05-21T14:23:29.815Z,4.89
2018-05-21T14:29:24.878Z,5.9
2018-05-21T14:35:19.871Z,6.81
2018-05-21T14:41:14.801Z,6.46
2018-05-21T14:47:09.806Z,6.55
2018-05-21T14:53:04.794Z,6.79
2018-05-21T14:58:59.811Z,7.02
2018-05-21T15:04:54.787Z,7.97
2018-05-21T15:10:49.831Z,11.41
2018-05-21T15:16:44.820Z,11.7
2018-05-21T15:22:39.808Z,10.43
2018-05-21T15:28:34.839Z,9.82
2018-05-21T15:34:29.815Z,9.27
2018-05-21T15:40:24.835Z,9.64
2018-05-21T15:46:19.853Z,7.46
2018-05-21T15:52:14.846Z,9.19
2018-05-21T15:58:09.844Z,8.58
2018-05-21T16:04:04.842Z,8.93
2018-05-21T16:09:59.855Z,9.28
2018-05-21T16:15:54.852Z,6.89
2018-05-21T16:21:49.878Z,6.86
2018-05-21T16:27:44.860Z,6.83
2018-05-21T16:33:39.874Z,9.31
2018-05-21T16:39:34.868Z,9.5
2018-05-21T16:45:29.880Z,13.23
2018-05-21T16:51:24.903Z,14.08
2018-05-21T16:57:19.907Z,13.72
2018-05-21T17:03:14.878Z,8.04
2018-05-21T17:09:09.915Z,13.08
2018-05-21T17:15:04.904Z,9.96
2018-05-21T17:20:59.919Z,9.43
2018-05-21T17:26:54.933Z,10.74
2018-05-21T17:32:50.047Z,10.36
2018-05-21T17:38:44.910Z,10.65
2018-05-21T17:44:39.885Z,10.33
2018-05-21T17:50:34.913Z,12.35
2018-05-21T17:56:29.919Z,15.3
2018-05-21T18:02:24.916Z,11.35
2018-05-21T18:08:19.944Z,7.34
2018-05-21T18:14:14.938Z,8.33
2018-05-21T18:20:09.916Z,7.18
2018-05-21T18:26:04.928Z,8.11
2018-05-21T18:31:59.944Z,14.09
2018-05-21T18:37:54.963Z,11.61
2018-05-21T18:43:49.932Z,10.69
2018-05-21T18:49:44.945Z,9.29
2018-05-21T18:55:39.968Z,8.58
2018-05-21T19:01:34.969Z,9.44
2018-05-21T19:07:29.949Z,9.6
2018-05-21T19:13:24.973Z,8.78
2018-05-21T19:19:19.952Z,11.09
2018-05-21T19:25:14.969Z,11.27
2018-05-21T19:31:09.953Z,10.73
2018-05-21T19:37:05.032Z,10.03
2018-05-21T19:42:59.984Z,10.94
2018-05-21T19:48:54.971Z,10.06
2018-05-21T19:54:49.974Z,9.23
2018-05-21T20:00:44.966Z,10.94
2018-05-21T20:06:40.014Z,10.99
2018-05-21T20:12:34.994Z,10.98
2018-05-21T20:18:29.997Z,10.22
2018-05-21T20:24:25.002Z,8.39
2018-05-21T20:30:20.019Z,8.42
2018-05-21T20:36:15.040Z,10.49
2018-05-21T20:42:09.989Z,9.51
2018-05-21T20:48:05.029Z,7.57
2018-05-21T20:54:00.018Z,8.97
2018-05-21T20:59:55.019Z,10.83
2018-05-21T21:05:50.030Z,10.76
2018-05-21T21:11:44.997Z,10.99
2018-05-21T21:17:40.012Z,10.24
2018-05-21T21:23:35.046Z,10.64
2018-05-21T21:29:30.054Z,9.84
2018-05-21T21:35:25.030Z,9.59
2018-05-21T21:41:20.029Z,8.68
2018-05-21T21:47:15.100Z,9.2
2018-05-21T21:53:10.119Z,9.64
2018-05-21T21:59:05.033Z,9.93
2018-05-21T22:05:00.096Z,9.93
2018-05-21T22:10:55.043Z,10.13
2018-05-21T22:16:50.105Z,10.71
2018-05-21T22:22:45.077Z,11.01
2018-05-21T22:28:40.068Z,11.43
2018-05-21T22:34:35.089Z,12.13
2018-05-21T22:40:30.151Z,11.95
2018-05-21T22:46:25.085Z,12.84
2018-05-21T22:52:20.087Z,12.81
2018-05-21T22:58:15.055Z,13.05
2018-05-21T23:04:10.094Z,10.67
2018-05-21T23:10:05.068Z,9.91
2018-05-21T23:16:00.065Z,8.82
2018-05-21T23:21:55.118Z,8.92
2018-05-21T23:27:50.143Z,9
2018-05-21T23:33:45.185Z,7.86
2018-05-21T23:39:40.125Z,9.06
2018-05-21T23:45:35.093Z,11.15
2018-05-21T23:51:30.145Z,10.66
2018-05-21T23:57:25.129Z,10.92
